createdAt,value
2017-11-12T00:00:23.063Z,3.75
2017-11-12T00:02:50.898Z,4.07
2017-11-12T00:05:18.742Z,6.62
2017-11-12T00:07:46.595Z,3.35
2017-11-12T00:10:14.459Z,3.90
2017-11-12T00:12:42.325Z,2.60
2017-11-12T00:15:23.438Z,3.70
2017-11-12T00:17:51.358Z,3.20
2017-11-12T00:20:19.210Z,3.60
2017-11-12T00:22:47.041Z,3.60
2017-11-12T00:25:16.323Z,4.05
2017-11-12T00:27:44.281Z,4.45
2017-11-12T00:30:12.146Z,3.95
2017-11-12T00:32:41.271Z,3.97
2017-11-12T00:35:16.187Z,3.80
2017-11-12T00:37:44.068Z,2.50
2017-11-12T00:40:11.922Z,3.78
2017-11-12T00:42:39.814Z,4.15
2017-11-12T00:45:07.703Z,4.60
2017-11-12T00:47:35.576Z,5.60
2017-11-12T00:50:03.435Z,4.65
2017-11-12T00:52:31.265Z,2.28
2017-11-12T00:54:59.119Z,4.90
2017-11-12T00:57:26.939Z,4.47
2017-11-12T00:59:54.774Z,3.75
2017-11-12T01:02:22.605Z,4.07
2017-11-12T01:04:50.491Z,4.57
2017-11-12T01:07:18.306Z,4.70
2017-11-12T01:09:46.149Z,4.32
2017-11-12T01:12:14.015Z,4.70
2017-11-12T01:14:41.854Z,4.25
2017-11-12T01:17:09.673Z,4.55
2017-11-12T01:19:37.493Z,4.32
2017-11-12T01:22:05.333Z,4.93
2017-11-12T01:24:34.256Z,5.45
2017-11-12T01:27:02.112Z,5.10
2017-11-12T01:29:29.958Z,4.70
2017-11-12T01:31:57.816Z,3.15
2017-11-12T01:34:25.710Z,4.93
2017-11-12T01:36:53.573Z,4.80
2017-11-12T01:39:21.429Z,2.25
2017-11-12T01:41:49.293Z,4.57
2017-11-12T01:44:19.114Z,3.00
2017-11-12T01:46:47.234Z,3.75
2017-11-12T01:49:15.155Z,2.80
2017-11-12T01:51:44.073Z,2.42
2017-11-12T01:54:11.945Z,5.18
2017-11-12T01:56:39.771Z,5.45
2017-11-12T01:59:09.262Z,4.70
2017-11-12T02:01:37.178Z,2.70
2017-11-12T02:04:12.826Z,4.95
2017-11-12T02:06:40.694Z,4.53
2017-11-12T02:09:08.538Z,4.45
2017-11-12T02:11:36.384Z,4.35
2017-11-12T02:14:04.225Z,5.87
2017-11-12T02:16:32.880Z,5.15
2017-11-12T02:19:00.722Z,4.70
2017-11-12T02:21:28.612Z,4.55
2017-11-12T02:23:56.461Z,5.78
2017-11-12T02:26:24.299Z,3.03
2017-11-12T02:28:52.178Z,5.97
2017-11-12T02:31:20.030Z,5.30
2017-11-12T02:33:47.902Z,5.03
2017-11-12T02:36:15.812Z,6.50
2017-11-12T02:38:43.678Z,6.22
2017-11-12T02:41:11.533Z,5.70
2017-11-12T02:43:39.392Z,6.03
2017-11-12T02:46:08.100Z,6.82
2017-11-12T02:48:35.953Z,6.65
2017-11-12T02:51:04.055Z,5.45
2017-11-12T02:53:31.921Z,6.70
2017-11-12T02:55:59.842Z,7.70
2017-11-12T02:58:27.744Z,5.22
2017-11-12T03:00:55.650Z,6.53
2017-11-12T03:03:23.518Z,5.35
2017-11-12T03:05:51.409Z,6.60
2017-11-12T03:08:19.279Z,6.85
2017-11-12T03:10:47.166Z,4.70
2017-11-12T03:13:14.982Z,6.25
2017-11-12T03:15:42.816Z,3.53
2017-11-12T03:18:10.671Z,6.25
2017-11-12T03:20:38.552Z,6.80
2017-11-12T03:23:06.639Z,7.05
2017-11-12T03:25:34.718Z,7.40
2017-11-12T03:28:02.636Z,6.12
2017-11-12T03:30:30.497Z,6.62
2017-11-12T03:32:58.360Z,6.68
2017-11-12T03:35:26.194Z,6.72
2017-11-12T03:37:54.045Z,7.15
2017-11-12T03:40:22.005Z,3.70
2017-11-12T03:42:49.897Z,7.85
2017-11-12T03:45:17.722Z,6.22
2017-11-12T03:47:45.615Z,7.82
2017-11-12T03:50:13.499Z,7.37
2017-11-12T03:52:41.341Z,7.37
2017-11-12T03:55:09.191Z,7.05
2017-11-12T03:57:37.033Z,7.47
2017-11-12T04:00:05.689Z,6.75
2017-11-12T04:02:33.546Z,7.97
2017-11-12T04:05:01.395Z,4.82
2017-11-12T04:07:29.263Z,6.75
2017-11-12T04:09:57.129Z,7.68
2017-11-12T04:12:24.961Z,5.97
2017-11-12T04:14:52.832Z,7.43
2017-11-12T04:17:20.714Z,5.40
2017-11-12T04:19:48.558Z,7.32
2017-11-12T04:22:16.430Z,7.80
2017-11-12T04:24:48.295Z,6.72
2017-11-12T04:27:16.149Z,4.45
2017-11-12T04:29:43.993Z,6.10
2017-11-12T04:32:11.815Z,6.45
2017-11-12T04:34:39.655Z,6.15
2017-11-12T04:37:07.487Z,9.15
2017-11-12T04:39:35.359Z,6.32
2017-11-12T04:42:03.210Z,6.20
2017-11-12T04:44:31.045Z,6.70
2017-11-12T04:46:58.916Z,6.45
2017-11-12T04:49:26.754Z,7.68
2017-11-12T04:51:54.883Z,7.25
2017-11-12T04:54:22.762Z,6.30
2017-11-12T04:56:50.622Z,7.62
2017-11-12T04:59:18.458Z,7.40
2017-11-12T05:01:46.317Z,8.02
2017-11-12T05:04:14.174Z,7.10
2017-11-12T05:06:42.053Z,7.15
2017-11-12T05:09:09.944Z,7.00
2017-11-12T05:11:37.817Z,7.03
2017-11-12T05:14:06.253Z,4.43
2017-11-12T05:16:34.578Z,7.95
2017-11-12T05:19:02.546Z,5.55
2017-11-12T05:21:31.048Z,6.90
2017-11-12T05:23:59.010Z,6.43
2017-11-12T05:26:26.865Z,8.93
2017-11-12T05:28:54.690Z,7.80
2017-11-12T05:31:22.549Z,8.23
2017-11-12T05:33:50.381Z,5.30
2017-11-12T05:36:18.235Z,7.62
2017-11-12T05:38:46.092Z,5.82
2017-11-12T05:41:14.944Z,10.35
2017-11-12T05:43:42.822Z,8.50
2017-11-12T05:46:10.687Z,7.80
2017-11-12T05:48:38.580Z,8.40
2017-11-12T05:51:06.467Z,6.25
2017-11-12T05:53:34.323Z,5.72
2017-11-12T05:56:02.163Z,8.25
2017-11-12T05:58:30.194Z,7.78
2017-11-12T06:00:58.038Z,8.20
2017-11-12T06:03:26.309Z,8.80
2017-11-12T06:05:55.330Z,8.27
2017-11-12T06:08:23.336Z,6.55
2017-11-12T06:10:51.216Z,7.90
2017-11-12T06:13:19.065Z,6.75
2017-11-12T06:20:12.662Z,6.60
2017-11-12T06:22:40.498Z,8.93
2017-11-12T06:25:08.342Z,8.63
2017-11-12T06:27:36.190Z,10.38
2017-11-12T06:30:04.995Z,8.93
2017-11-12T06:32:32.885Z,9.43
2017-11-12T06:35:02.572Z,9.43
2017-11-12T06:37:30.487Z,10.00
2017-11-12T06:39:58.327Z,9.90
2017-11-12T06:42:26.190Z,9.52
2017-11-12T06:44:54.041Z,9.07
2017-11-12T06:47:21.875Z,9.23
2017-11-12T06:49:49.734Z,8.82
2017-11-12T06:52:17.642Z,9.32
2017-11-12T06:54:56.163Z,9.95
2017-11-12T06:57:24.089Z,10.07
2017-11-12T06:59:51.915Z,8.70
2017-11-12T07:02:19.771Z,6.93
2017-11-12T07:04:47.591Z,8.55
2017-11-12T07:07:15.430Z,8.50
2017-11-12T07:09:44.002Z,7.97
2017-11-12T07:12:11.867Z,8.90
2017-11-12T07:14:39.714Z,8.73
2017-11-12T07:17:07.544Z,9.00
2017-11-12T07:19:35.450Z,8.98
2017-11-12T07:22:03.317Z,8.90
2017-11-12T07:24:31.158Z,8.55
2017-11-12T07:26:58.974Z,9.20
2017-11-12T07:29:26.820Z,7.65
2017-11-12T07:31:54.641Z,7.75
2017-11-12T07:34:22.465Z,8.45
2017-11-12T07:36:50.665Z,7.32
2017-11-12T07:39:18.695Z,8.95
2017-11-12T07:41:46.622Z,7.45
2017-11-12T07:44:14.467Z,8.77
2017-11-12T07:46:43.262Z,7.85
2017-11-12T07:49:11.142Z,7.78
2017-11-12T07:51:39.002Z,7.82
2017-11-12T07:54:06.851Z,8.00
2017-11-12T07:56:34.745Z,7.28
2017-11-12T07:59:02.619Z,8.15
2017-11-12T08:01:30.462Z,6.78
2017-11-12T08:03:58.314Z,8.48
2017-11-12T08:06:26.181Z,8.45
2017-11-12T08:08:54.093Z,6.37
2017-11-12T08:11:21.989Z,6.55
2017-11-12T08:13:49.881Z,8.27
2017-11-12T08:16:17.746Z,7.35
2017-11-12T08:18:45.618Z,7.15
2017-11-12T08:21:13.472Z,6.82
2017-11-12T08:23:41.444Z,7.00
2017-11-12T08:26:09.304Z,6.55
2017-11-12T08:28:37.177Z,3.35
2017-11-12T08:31:05.047Z,5.12
2017-11-12T08:33:32.915Z,7.55
2017-11-12T08:36:00.779Z,7.15
2017-11-12T08:38:28.651Z,7.10
2017-11-12T08:40:56.493Z,6.35
2017-11-12T08:43:24.401Z,7.05
2017-11-12T08:45:52.313Z,5.28
2017-11-12T08:48:20.176Z,5.72
2017-11-12T08:50:48.081Z,6.75
2017-11-12T08:53:15.906Z,6.95
2017-11-12T08:55:43.815Z,8.18
2017-11-12T08:58:11.675Z,6.43
2017-11-12T09:00:39.606Z,5.30
2017-11-12T09:03:07.477Z,6.20
2017-11-12T09:05:35.345Z,7.80
2017-11-12T09:08:03.213Z,6.60
2017-11-12T09:10:31.112Z,6.35
2017-11-12T09:12:59.017Z,7.07
2017-11-12T09:15:26.881Z,6.87
2017-11-12T09:17:54.828Z,6.65
2017-11-12T09:20:22.704Z,5.40
2017-11-12T09:22:50.545Z,7.12
2017-11-12T09:25:18.390Z,5.60
2017-11-12T09:27:46.258Z,7.50
2017-11-12T09:30:14.122Z,5.15
2017-11-12T09:32:41.933Z,9.05
2017-11-12T09:35:09.793Z,7.12
2017-11-12T09:37:37.642Z,7.75
2017-11-12T09:40:05.490Z,8.30
2017-11-12T09:42:33.354Z,7.30
2017-11-12T09:45:01.240Z,7.00
2017-11-12T09:47:29.134Z,7.70
2017-11-12T09:49:57.029Z,6.75
2017-11-12T09:52:24.901Z,6.37
2017-11-12T09:54:52.774Z,6.60
2017-11-12T09:57:21.967Z,8.00
2017-11-12T09:59:49.906Z,5.63
2017-11-12T10:02:17.805Z,7.10
2017-11-12T10:04:45.710Z,5.72
2017-11-12T10:07:13.573Z,7.60
2017-11-12T10:09:41.446Z,7.87
2017-11-12T10:12:09.418Z,7.50
2017-11-12T10:17:31.169Z,6.93
2017-11-12T10:19:59.094Z,7.90
2017-11-12T10:22:26.988Z,8.73
2017-11-12T10:24:54.853Z,7.05
2017-11-12T10:27:22.746Z,9.02
2017-11-12T10:29:50.586Z,10.10
2017-11-12T10:32:18.434Z,8.77
2017-11-12T10:34:46.318Z,7.47
2017-11-12T10:37:14.154Z,8.20
2017-11-12T10:39:44.254Z,8.30
2017-11-12T10:42:35.142Z,7.23
2017-11-12T10:45:03.099Z,9.83
2017-11-12T10:47:30.982Z,8.10
2017-11-12T10:49:58.887Z,7.30
2017-11-12T10:52:26.736Z,7.47
2017-11-12T10:54:54.744Z,7.03
2017-11-12T10:57:22.646Z,8.03
2017-11-12T10:59:50.554Z,9.80
2017-11-12T11:02:18.526Z,8.23
2017-11-12T11:04:48.538Z,7.97
2017-11-12T11:07:16.427Z,7.93
2017-11-12T11:09:44.327Z,8.67
2017-11-12T11:12:12.265Z,8.13
2017-11-12T11:14:48.507Z,9.43
2017-11-12T11:17:16.394Z,12.03
2017-11-12T11:19:44.287Z,9.10
2017-11-12T11:22:12.192Z,9.53
2017-11-12T11:27:33.301Z,10.30
2017-11-12T11:30:01.179Z,9.13
2017-11-12T11:35:34.643Z,8.80
2017-11-12T11:38:02.788Z,8.43
2017-11-12T11:40:30.723Z,9.80
2017-11-12T11:43:04.894Z,8.63
2017-11-12T11:45:32.832Z,8.80
2017-11-12T11:50:52.356Z,7.43
2017-11-12T11:55:54.838Z,7.60
2017-11-12T11:58:22.931Z,7.13
2017-11-12T12:00:51.686Z,7.57
2017-11-12T12:06:00.652Z,7.20
2017-11-12T12:08:28.603Z,6.57
2017-11-12T12:10:56.572Z,9.17
2017-11-12T12:13:24.505Z,10.10
2017-11-12T12:16:06.360Z,8.90
2017-11-12T12:21:27.760Z,8.93
2017-11-12T12:23:57.649Z,10.37
2017-11-12T12:26:25.793Z,10.30
2017-11-12T12:29:08.093Z,6.93
2017-11-12T12:31:36.276Z,6.63
2017-11-12T12:34:04.210Z,9.27
2017-11-12T12:36:32.061Z,10.33
2017-11-12T12:38:59.930Z,8.93
2017-11-12T12:41:27.812Z,8.63
2017-11-12T12:43:55.676Z,8.50
2017-11-12T12:46:23.530Z,9.43
2017-11-12T12:48:51.380Z,9.97
2017-11-12T12:51:19.243Z,21.53
2017-11-12T12:53:47.090Z,9.57
2017-11-12T12:56:14.956Z,10.03
2017-11-12T12:58:42.811Z,9.40
2017-11-12T13:01:10.638Z,8.80
2017-11-12T13:03:38.490Z,9.17
2017-11-12T13:06:06.354Z,8.10
2017-11-12T13:08:34.230Z,8.87
2017-11-12T13:11:02.108Z,10.00
2017-11-12T13:13:30.013Z,9.50
2017-11-12T13:15:57.887Z,9.10
2017-11-12T13:18:25.751Z,10.07
2017-11-12T13:20:53.658Z,9.67
2017-11-12T13:23:21.529Z,8.67
2017-11-12T13:25:49.464Z,11.43
2017-11-12T13:28:17.396Z,10.70
2017-11-12T13:30:45.245Z,10.13
2017-11-12T13:33:13.103Z,9.33
2017-11-12T13:35:40.928Z,10.63
2017-11-12T13:38:08.794Z,10.67
2017-11-12T13:40:36.615Z,11.80
2017-11-12T13:43:04.459Z,13.90
2017-11-12T13:45:32.289Z,13.93
2017-11-12T13:48:00.124Z,13.37
2017-11-12T13:50:27.959Z,10.87
2017-11-12T13:52:55.790Z,10.13
2017-11-12T13:55:23.663Z,11.90
2017-11-12T13:57:51.513Z,10.40
2017-11-12T14:00:19.337Z,9.90
2017-11-12T14:02:47.150Z,11.80
2017-11-12T14:05:14.992Z,9.63
2017-11-12T14:07:42.834Z,11.03
2017-11-12T14:10:10.728Z,10.93
2017-11-12T14:12:38.578Z,11.93
2017-11-12T14:15:06.435Z,10.37
2017-11-12T14:17:34.336Z,11.03
2017-11-12T14:20:02.206Z,11.20
2017-11-12T14:22:30.029Z,13.50
2017-11-12T14:24:57.863Z,12.33
2017-11-12T14:27:25.713Z,11.33
2017-11-12T14:29:53.598Z,11.80
2017-11-12T14:32:21.430Z,12.00
2017-11-12T14:34:49.274Z,11.53
2017-11-12T14:37:17.090Z,12.60
2017-11-12T14:39:44.946Z,12.47
2017-11-12T14:42:12.776Z,16.20
2017-11-12T14:44:40.618Z,14.73
2017-11-12T14:47:08.462Z,15.30
2017-11-12T14:49:36.296Z,13.70
2017-11-12T14:52:04.173Z,12.50
2017-11-12T14:54:32.021Z,11.60
2017-11-12T14:56:59.857Z,13.13
2017-11-12T14:59:27.702Z,11.60
2017-11-12T15:01:55.535Z,11.13
2017-11-12T15:04:23.374Z,10.83
2017-11-12T15:06:51.192Z,11.90
2017-11-12T15:09:19.018Z,12.07
2017-11-12T15:11:46.863Z,10.70
2017-11-12T15:14:14.717Z,10.37
2017-11-12T15:16:42.558Z,11.00
2017-11-12T15:19:10.469Z,10.57
2017-11-12T15:21:38.335Z,10.40
2017-11-12T15:24:06.238Z,9.17
2017-11-12T15:26:34.094Z,9.83
2017-11-12T15:29:01.936Z,10.70
2017-11-12T15:31:29.765Z,10.60
2017-11-12T15:33:57.642Z,11.07
2017-11-12T15:36:25.469Z,10.10
2017-11-12T15:38:53.326Z,10.97
2017-11-12T15:41:21.166Z,11.10
2017-11-12T15:43:49.024Z,11.27
2017-11-12T15:46:16.870Z,12.20
2017-11-12T15:48:44.722Z,12.73
2017-11-12T15:51:12.571Z,12.33
2017-11-12T15:53:40.454Z,12.30
2017-11-12T15:56:08.363Z,13.67
2017-11-12T15:58:36.215Z,13.10
2017-11-12T16:01:04.061Z,14.97
2017-11-12T16:03:31.910Z,12.47
2017-11-12T16:05:59.753Z,12.10
2017-11-12T16:08:27.594Z,14.40
2017-11-12T16:10:55.449Z,13.13
2017-11-12T16:13:23.291Z,12.90
2017-11-12T16:15:51.150Z,13.20
2017-11-12T16:18:18.998Z,13.00
2017-11-12T16:20:46.869Z,13.10
2017-11-12T16:23:14.699Z,13.13
2017-11-12T16:25:42.537Z,14.43
2017-11-12T16:28:10.370Z,14.07
2017-11-12T16:30:38.268Z,12.60
2017-11-12T16:33:06.102Z,14.20
2017-11-12T16:35:33.998Z,14.37
2017-11-12T16:38:01.861Z,13.10
2017-11-12T16:40:29.726Z,12.33
2017-11-12T16:42:57.592Z,13.70
2017-11-12T16:45:25.442Z,13.20
2017-11-12T16:47:53.303Z,12.80
2017-11-12T16:50:21.150Z,13.50
2017-11-12T16:52:48.992Z,14.37
2017-11-12T16:55:16.853Z,13.40
2017-11-12T16:57:44.716Z,13.87
2017-11-12T17:00:12.570Z,14.47
2017-11-12T17:02:40.445Z,13.87
2017-11-12T17:05:08.306Z,14.80
2017-11-12T17:07:36.153Z,14.23
2017-11-12T17:10:04.014Z,15.07
2017-11-12T17:12:31.850Z,14.47
2017-11-12T17:14:59.698Z,14.93
2017-11-12T17:17:27.546Z,15.80
2017-11-12T17:19:55.393Z,15.17
2017-11-12T17:22:23.223Z,14.80
2017-11-12T17:24:51.069Z,14.73
2017-11-12T17:27:18.933Z,16.87
2017-11-12T17:29:46.805Z,14.93
2017-11-12T17:32:14.636Z,16.93
2017-11-12T17:34:42.478Z,16.23
2017-11-12T17:37:10.436Z,16.10
2017-11-12T17:39:38.288Z,17.93
2017-11-12T17:42:06.134Z,15.83
2017-11-12T17:44:33.995Z,15.03
2017-11-12T17:47:01.881Z,13.50
2017-11-12T17:49:29.761Z,13.87
2017-11-12T17:51:57.587Z,13.10
2017-11-12T17:54:25.521Z,14.77
2017-11-12T17:56:53.386Z,13.80
2017-11-12T17:59:21.267Z,14.47
2017-11-12T18:01:51.257Z,13.47
2017-11-12T18:04:36.315Z,14.90
2017-11-12T18:07:04.393Z,13.00
2017-11-12T18:09:32.248Z,13.30
2017-11-12T18:12:00.127Z,12.53
2017-11-12T18:14:27.964Z,12.40
2017-11-12T18:16:55.850Z,14.00
2017-11-12T18:19:23.708Z,15.23
2017-11-12T18:21:51.558Z,15.23
2017-11-12T18:24:19.417Z,17.33
2017-11-12T18:26:47.277Z,13.50
2017-11-12T18:29:15.125Z,14.40
2017-11-12T18:31:43.006Z,14.97
2017-11-12T18:34:10.873Z,16.03
2017-11-12T18:36:38.747Z,15.83
2017-11-12T18:39:06.685Z,16.20
2017-11-12T18:41:35.668Z,15.90
2017-11-12T18:44:03.525Z,16.50
2017-11-12T18:46:31.385Z,16.97
2017-11-12T18:48:59.272Z,18.07
2017-11-12T18:51:27.136Z,17.23
2017-11-12T18:53:55.078Z,18.40
2017-11-12T18:56:23.848Z,19.60
2017-11-12T18:58:51.714Z,20.60
2017-11-12T19:01:26.541Z,19.30
2017-11-12T19:04:00.558Z,19.60
2017-11-12T19:06:38.852Z,17.83
2017-11-12T19:09:06.730Z,18.70
2017-11-12T19:11:35.353Z,20.77
2017-11-12T19:14:03.275Z,19.83
2017-11-12T19:16:31.134Z,20.10
2017-11-12T19:19:00.909Z,22.90
2017-11-12T19:21:32.636Z,22.23
2017-11-12T19:24:16.458Z,23.60
2017-11-12T19:26:49.265Z,22.10
2017-11-12T19:29:19.034Z,19.93
2017-11-12T19:31:46.880Z,20.80
2017-11-12T19:34:14.767Z,21.97
2017-11-12T19:36:42.650Z,22.40
2017-11-12T19:39:10.483Z,23.07
2017-11-12T19:41:38.338Z,23.33
2017-11-12T19:47:03.513Z,24.98
2017-11-12T19:49:31.345Z,22.90
2017-11-12T19:51:59.182Z,23.27
2017-11-12T20:01:32.389Z,24.90
2017-11-12T20:07:04.928Z,25.87
2017-11-12T20:09:32.758Z,25.43
2017-11-12T20:12:00.574Z,26.07
2017-11-12T20:14:45.185Z,31.17
2017-11-12T20:17:31.950Z,26.07
2017-11-12T20:20:02.071Z,25.33
2017-11-12T20:22:29.956Z,27.23
2017-11-12T20:24:57.798Z,26.65
2017-11-12T20:27:25.646Z,27.67
2017-11-12T20:29:53.558Z,26.70
2017-11-12T20:32:21.374Z,26.50
2017-11-12T20:34:49.207Z,30.85
2017-11-12T20:37:17.034Z,30.50
2017-11-12T20:39:44.870Z,29.20
2017-11-12T20:42:12.709Z,25.30
2017-11-12T20:44:40.557Z,28.00
2017-11-12T20:47:09.246Z,32.03
2017-11-12T20:49:37.086Z,29.35
2017-11-12T20:52:04.922Z,29.10
2017-11-12T20:54:41.386Z,28.20
2017-11-12T20:57:09.229Z,30.42
2017-11-12T20:59:37.105Z,30.00
2017-11-12T21:02:04.969Z,29.50
2017-11-12T21:04:32.850Z,26.92
2017-11-12T21:07:00.703Z,28.83
2017-11-12T21:09:28.565Z,28.17
2017-11-12T21:11:56.405Z,31.60
2017-11-12T21:14:24.298Z,29.95
2017-11-12T21:16:52.149Z,30.62
2017-11-12T21:19:20.848Z,27.03
2017-11-12T21:21:48.674Z,30.07
2017-11-12T21:24:20.338Z,29.83
2017-11-12T21:26:48.174Z,28.52
2017-11-12T21:29:18.019Z,29.15
2017-11-12T21:31:57.814Z,31.02
2017-11-12T21:34:28.654Z,31.35
2017-11-12T21:36:57.334Z,29.65
2017-11-12T21:39:25.220Z,29.67
2017-11-12T21:41:53.104Z,28.23
2017-11-12T21:44:27.763Z,29.17
2017-11-12T21:46:55.649Z,29.65
2017-11-12T21:49:23.502Z,27.27
2017-11-12T21:51:51.353Z,29.05
2017-11-12T21:54:19.215Z,25.67
2017-11-12T21:56:47.055Z,27.10
2017-11-12T21:59:14.931Z,30.45
2017-11-12T22:01:42.784Z,28.40
2017-11-12T22:04:10.641Z,26.65
2017-11-12T22:06:38.533Z,28.92
2017-11-12T22:09:06.385Z,29.90
2017-11-12T22:11:34.219Z,29.12
2017-11-12T22:14:02.057Z,29.42
2017-11-12T22:16:29.897Z,29.20
2017-11-12T22:18:57.734Z,29.77
2017-11-12T22:21:25.558Z,25.37
2017-11-12T22:23:53.396Z,26.80
2017-11-12T22:26:21.306Z,29.05
2017-11-12T22:28:49.173Z,27.87
2017-11-12T22:31:17.021Z,29.10
2017-11-12T22:33:44.891Z,25.73
2017-11-12T22:36:12.774Z,29.02
2017-11-12T22:38:40.598Z,27.05
2017-11-12T22:41:08.459Z,29.50
2017-11-12T22:43:36.317Z,28.35
2017-11-12T22:46:04.158Z,25.10
2017-11-12T22:48:32.046Z,27.40
2017-11-12T22:50:59.917Z,25.05
2017-11-12T22:53:27.742Z,22.95
2017-11-12T22:55:55.601Z,27.35
2017-11-12T22:58:23.422Z,18.80
2017-11-12T23:00:57.201Z,21.67
2017-11-12T23:03:25.042Z,25.40
2017-11-12T23:05:52.878Z,25.98
2017-11-12T23:08:20.700Z,25.30
2017-11-12T23:10:48.580Z,25.50
2017-11-12T23:13:16.421Z,23.23
2017-11-12T23:15:44.250Z,24.35
2017-11-12T23:18:12.093Z,24.85
2017-11-12T23:20:39.918Z,24.12
2017-11-12T23:23:07.752Z,25.42
2017-11-12T23:25:35.613Z,23.27
2017-11-12T23:28:03.451Z,26.23
2017-11-12T23:30:31.319Z,23.55
2017-11-12T23:32:59.163Z,23.25
2017-11-12T23:35:27.005Z,21.77
2017-11-12T23:37:54.855Z,23.60
2017-11-12T23:40:22.697Z,23.25
2017-11-12T23:42:50.563Z,24.85
2017-11-12T23:45:18.395Z,25.48
2017-11-12T23:47:46.251Z,23.48
2017-11-12T23:50:14.083Z,24.35
2017-11-12T23:52:41.908Z,25.33
2017-11-12T23:55:09.747Z,25.98
2017-11-12T23:57:37.585Z,24.05
